Time;durP1;ratioP1;P1;durP2;ratioP2;P2;SDS_P1;SDS_P2;PMS_P1;PMS_P2;Temp;Humidity;BMP_temperature;BMP_pressure;BME280_temperature;BME280_humidity;BME280_pressure;Samples;Min_cycle;Max_cycle;Signal;HPM_P1;HPM_P2
2023/05/21 00:01:00;;;;;;;;;;;;;;;;;;4957239;28;19922;-87
2023/05/21 00:03:27;;;;;;;;;;;;;;;;;;4957711;28;19928;-88
2023/05/21 00:05:53;;;;;;;;;;;;;;;;;;4957397;28;19926;-87
2023/05/21 00:08:19;;;;;;;;;;;;;;;;;;4957087;28;20446;-87
2023/05/21 00:10:45;;;;;;;;;;;;;;;;;;4972641;28;19976;-87
2023/05/21 00:13:11;;;;;;;;;;;;;;;;;;4957170;28;19969;-87
2023/05/21 00:15:37;;;;;;;;;;;;;;;;;;4957285;28;19928;-88
2023/05/21 00:18:03;;;;;;;;;;;;;;;;;;4957095;28;19972;-87
2023/05/21 00:20:31;;;;;;;;;;;;;;;;;;4957335;28;20371;-87
2023/05/21 00:22:56;;;;;;;;;;;;;;;;;;4957285;28;19926;-87
2023/05/21 00:25:22;;;;;;;;;;;;;;;;;;4957384;28;19976;-87
2023/05/21 00:27:48;;;;;;;;;;;;;;;;;;4957152;28;19926;-87
2023/05/21 00:30:15;;;;;;;;;;;;;;;;;;4956925;28;19926;-87
2023/05/21 00:32:41;;;;;;;;;;;;;;;;;;4957121;28;19929;-87
2023/05/21 00:35:07;;;;;;;;;;;;;;;;;;4956942;28;19922;-86
2023/05/21 00:37:35;;;;;;;;;;;;;;;;;;4957173;28;20063;-87
2023/05/21 00:40:01;;;;;;;;;;;;;;;;;;4957314;28;19969;-87
2023/05/21 00:42:29;;;;;;;;;;;;;;;;;;4957369;28;19929;-87
2023/05/21 00:44:55;;;;;;;;;;;;;;;;;;4957229;28;19926;-87
2023/05/21 00:47:21;;;;;;;;;;;;;;;;;;4956750;28;19981;-87
2023/05/21 00:49:47;;;;;;;;;;;;;;;;;;4957210;28;20323;-87
2023/05/21 00:52:13;;;;;;;;;;;;;;;;;;4957074;28;19926;-88
2023/05/21 00:54:40;;;;;;;;;;;;;;;;;;4957189;28;19926;-87
2023/05/21 00:57:05;;;;;;;;;;;;;;;;;;4957299;28;20335;-87
2023/05/21 00:59:32;;;;;;;;;;;;;;;;;;4957075;28;19973;-87
2023/05/21 01:02:03;;;;;;;;;;;;;;;;;;4957027;28;20009;-87
2023/05/21 01:04:30;;;;;;;;;;;;;;;;;;4957265;28;20013;-87
2023/05/21 01:06:57;;;;;;;;;;;;;;;;;;4973108;28;19922;-87
2023/05/21 01:09:23;;;;;;;;;;;;;;;;;;4973064;28;19922;-87
2023/05/21 01:11:49;;;;;;;;;;;;;;;;;;4956824;28;19933;-87
2023/05/21 01:14:15;;;;;;;;;;;;;;;;;;4956855;28;20017;-87
2023/05/21 01:16:41;;;;;;;;;;;;;;;;;;4956856;28;19977;-87
2023/05/21 01:19:08;;;;;;;;;;;;;;;;;;4956839;28;20024;-87
2023/05/21 01:21:34;;;;;;;;;;;;;;;;;;4956655;28;20015;-88
2023/05/21 01:24:01;;;;;;;;;;;;;;;;;;4959799;28;20379;-88
2023/05/21 01:26:27;;;;;;;;;;;;;;;;;;4960416;28;19922;-87
2023/05/21 01:28:53;;;;;;;;;;;;;;;;;;4960234;28;19933;-87
2023/05/21 01:31:19;;;;;;;;;;;;;;;;;;4960056;28;19930;-87
2023/05/21 01:33:45;;;;;;;;;;;;;;;;;;4960280;28;20012;-87
2023/05/21 01:36:12;;;;;;;;;;;;;;;;;;4976061;28;20662;-87
2023/05/21 01:38:38;;;;;;;;;;;;;;;;;;4960148;28;19922;-87
2023/05/21 01:41:04;;;;;;;;;;;;;;;;;;4959872;28;19929;-87
2023/05/21 01:43:30;;;;;;;;;;;;;;;;;;4959928;28;20375;-87
2023/05/21 01:45:56;;;;;;;;;;;;;;;;;;4959814;28;19922;-86
2023/05/21 01:48:22;;;;;;;;;;;;;;;;;;4959677;28;19933;-87
2023/05/21 01:50:48;;;;;;;;;;;;;;;;;;4959645;28;20398;-87
2023/05/21 01:53:16;;;;;;;;;;;;;;;;;;4959864;28;20016;-87
2023/05/21 01:55:42;;;;;;;;;;;;;;;;;;4959912;28;19922;-87
2023/05/21 01:58:08;;;;;;;;;;;;;;;;;;4975811;28;20356;-87
2023/05/21 02:00:34;;;;;;;;;;;;;;;;;;4959462;28;19921;-87
2023/05/21 02:03:00;;;;;;;;;;;;;;;;;;4959623;28;20299;-87
2023/05/21 02:05:26;;;;;;;;;;;;;;;;;;4959662;28;19922;-87
2023/05/21 02:07:52;;;;;;;;;;;;;;;;;;4959490;28;19997;-87
2023/05/21 02:10:18;;;;;;;;;;;;;;;;;;4958032;28;19922;-88
2023/05/21 02:12:44;;;;;;;;;;;;;;;;;;4958368;28;19995;-87
2023/05/21 02:15:10;;;;;;;;;;;;;;;;;;4958202;28;19922;-87
2023/05/21 02:17:37;;;;;;;;;;;;;;;;;;4958127;28;20360;-87
2023/05/21 02:20:09;;;;;;;;;;;;;;;;;;4957930;28;20028;-87
2023/05/21 02:22:35;;;;;;;;;;;;;;;;;;4958419;28;19922;-87
2023/05/21 02:25:01;;;;;;;;;;;;;;;;;;4959008;28;19972;-87
2023/05/21 02:27:30;;;;;;;;;;;;;;;;;;4959108;28;20016;-87
2023/05/21 02:29:56;;;;;;;;;;;;;;;;;;4958669;28;20004;-87
2023/05/21 02:32:22;;;;;;;;;;;;;;;;;;4958965;28;20001;-87
2023/05/21 02:37:39;;;;;;;;;;;;;;;;;;4974877;28;20299;-87
2023/05/21 02:40:05;;;;;;;;;;;;;;;;;;4958594;28;19985;-87
2023/05/21 02:42:31;;;;;;;;;;;;;;;;;;4958643;28;19923;-87
2023/05/21 02:44:56;;;;;;;;;;;;;;;;;;4958723;28;19929;-87
2023/05/21 02:47:22;;;;;;;;;;;;;;;;;;4958860;28;20383;-87
2023/05/21 02:49:48;;;;;;;;;;;;;;;;;;4958682;28;19928;-88
2023/05/21 02:52:14;;;;;;;;;;;;;;;;;;4958698;28;20357;-87
2023/05/21 02:54:40;;;;;;;;;;;;;;;;;;4958578;28;19922;-87
2023/05/21 02:57:06;;;;;;;;;;;;;;;;;;4958969;28;20323;-86
2023/05/21 02:59:32;;;;;;;;;;;;;;;;;;4958631;28;19926;-86
2023/05/21 03:01:58;;;;;;;;;;;;;;;;;;4958425;28;19922;-87
2023/05/21 03:04:27;;;;;;;;;;;;;;;;;;4958537;28;19930;-87
2023/05/21 03:06:53;;;;;;;;;;;;;;;;;;4958512;28;19929;-87
2023/05/21 03:09:20;;;;;;;;;;;;;;;;;;4958331;28;20569;-87
2023/05/21 03:11:46;;;;;;;;;;;;;;;;;;4974330;28;19930;-87
2023/05/21 03:14:12;;;;;;;;;;;;;;;;;;4974395;28;19926;-87
2023/05/21 03:16:40;;;;;;;;;;;;;;;;;;4958257;28;20315;-87
2023/05/21 03:19:06;;;;;;;;;;;;;;;;;;4958076;28;19922;-87
2023/05/21 03:21:32;;;;;;;;;;;;;;;;;;4958030;28;19929;-87
2023/05/21 03:23:58;;;;;;;;;;;;;;;;;;4958133;28;20447;-87
2023/05/21 03:26:26;;;;;;;;;;;;;;;;;;4974185;28;19922;-87
2023/05/21 03:28:52;;;;;;;;;;;;;;;;;;4958019;28;20295;-87
2023/05/21 03:31:17;;;;;;;;;;;;;;;;;;4957836;28;19928;-87
2023/05/21 03:33:43;;;;;;;;;;;;;;;;;;4957862;28;19973;-87
2023/05/21 03:36:09;;;;;;;;;;;;;;;;;;4958005;28;19926;-87
2023/05/21 03:38:35;;;;;;;;;;;;;;;;;;4957629;28;19957;-87
2023/05/21 03:41:01;;;;;;;;;;;;;;;;;;4974055;28;19922;-86
2023/05/21 03:43:27;;;;;;;;;;;;;;;;;;4958056;28;19922;-87
2023/05/21 03:45:53;;;;;;;;;;;;;;;;;;4958000;28;19922;-87
2023/05/21 03:48:19;;;;;;;;;;;;;;;;;;4957593;28;19996;-88
2023/05/21 03:50:45;;;;;;;;;;;;;;;;;;4957598;28;19921;-87
2023/05/21 03:53:11;;;;;;;;;;;;;;;;;;4958005;28;20359;-87
2023/05/21 03:55:37;;;;;;;;;;;;;;;;;;4958048;28;19921;-87
2023/05/21 03:58:03;;;;;;;;;;;;;;;;;;4973969;28;20418;-87
2023/05/21 04:00:29;;;;;;;;;;;;;;;;;;4957655;28;19945;-87
2023/05/21 04:02:54;;;;;;;;;;;;;;;;;;4957793;28;19961;-87
2023/05/21 04:05:20;;;;;;;;;;;;;;;;;;4957471;28;20013;-87
2023/05/21 04:07:47;;;;;;;;;;;;;;;;;;4957434;28;19926;-87
2023/05/21 04:10:13;;;;;;;;;;;;;;;;;;4957363;28;20338;-87
2023/05/21 04:12:39;;;;;;;;;;;;;;;;;;4957400;28;19922;-87
2023/05/21 04:15:05;;;;;;;;;;;;;;;;;;4957358;28;19922;-86
2023/05/21 04:17:32;;;;;;;;;;;;;;;;;;4957179;28;20013;-87
2023/05/21 04:19:58;;;;;;;;;;;;;;;;;;4973226;28;19922;-87
2023/05/21 04:22:25;;;;;;;;;;;;;;;;;;4957311;28;19922;-87
2023/05/21 04:24:51;;;;;;;;;;;;;;;;;;4957574;28;20491;-87
2023/05/21 04:27:18;;;;;;;;;;;;;;;;;;4957318;28;20020;-87
2023/05/21 04:29:43;;;;;;;;;;;;;;;;;;4957186;28;20298;-87
2023/05/21 04:32:10;;;;;;;;;;;;;;;;;;4957267;28;19926;-87
2023/05/21 04:34:47;;;;;;;;;;;;;;;;;;4957252;28;20001;-87
2023/05/21 04:37:13;;;;;;;;;;;;;;;;;;4957253;28;19933;-87
2023/05/21 04:39:41;;;;;;;;;;;;;;;;;;4973288;28;19997;-87
2023/05/21 04:42:09;;;;;;;;;;;;;;;;;;4957151;28;19945;-87
2023/05/21 04:44:35;;;;;;;;;;;;;;;;;;4973548;28;19922;-87
2023/05/21 04:47:01;;;;;;;;;;;;;;;;;;4957019;28;19929;-86
2023/05/21 04:49:27;;;;;;;;;;;;;;;;;;4956983;28;19922;-87
2023/05/21 04:51:53;;;;;;;;;;;;;;;;;;4957021;28;19922;-87
2023/05/21 04:54:19;;;;;;;;;;;;;;;;;;4957121;28;19929;-86
2023/05/21 04:56:46;;;;;;;;;;;;;;;;;;4956986;28;19922;-87
2023/05/21 04:59:12;;;;;;;;;;;;;;;;;;4960643;28;19970;-87
2023/05/21 05:01:38;;;;;;;;;;;;;;;;;;4960539;28;19929;-87
2023/05/21 05:04:04;;;;;;;;;;;;;;;;;;4960694;28;19922;-87
2023/05/21 05:06:30;;;;;;;;;;;;;;;;;;4977014;28;19926;-87
2023/05/21 05:08:56;;;;;;;;;;;;;;;;;;4960638;28;19930;-87
2023/05/21 05:11:22;;;;;;;;;;;;;;;;;;4960389;28;20378;-87
2023/05/21 05:13:48;;;;;;;;;;;;;;;;;;4960577;28;19929;-87
2023/05/21 05:16:17;;;;;;;;;;;;;;;;;;4976903;28;19981;-86
2023/05/21 05:18:43;;;;;;;;;;;;;;;;;;4960430;28;19929;-87
2023/05/21 05:21:08;;;;;;;;;;;;;;;;;;4960122;28;20005;-87
2023/05/21 05:23:34;;;;;;;;;;;;;;;;;;4960371;28;20008;-87
2023/05/21 05:26:00;;;;;;;;;;;;;;;;;;4960414;28;20011;-87
2023/05/21 05:28:26;;;;;;;;;;;;;;;;;;4976192;28;19926;-87
2023/05/21 05:30:52;;;;;;;;;;;;;;;;;;4960118;28;20379;-87
2023/05/21 05:33:18;;;;;;;;;;;;;;;;;;4960463;28;20395;-87
2023/05/21 05:35:44;;;;;;;;;;;;;;;;;;4960244;28;20005;-87
2023/05/21 05:38:10;;;;;;;;;;;;;;;;;;4960108;28;20013;-87
2023/05/21 05:40:36;;;;;;;;;;;;;;;;;;4959933;28;20405;-87
2023/05/21 05:43:02;;;;;;;;;;;;;;;;;;4960235;28;19996;-87
2023/05/21 05:45:28;;;;;;;;;;;;;;;;;;4960242;28;19922;-88
2023/05/21 05:47:53;;;;;;;;;;;;;;;;;;4959739;28;19926;-87
2023/05/21 05:53:23;;;;;;;;;;;;;;;;;;4977251;28;20298;-87
2023/05/21 05:55:49;;;;;;;;;;;;;;;;;;4959793;28;20021;-86
2023/05/21 05:58:15;;;;;;;;;;;;;;;;;;4959896;28;19950;-87
2023/05/21 06:00:41;;;;;;;;;;;;;;;;;;4959202;28;19922;-87
2023/05/21 06:03:07;;;;;;;;;;;;;;;;;;4960347;28;19926;-87
2023/05/21 06:05:32;;;;;;;;;;;;;;;;;;4959904;28;20330;-87
2023/05/21 06:07:58;;;;;;;;;;;;;;;;;;4959658;28;19926;-86
2023/05/21 06:13:09;;;;;;;;;;;;;;;;;;4975633;28;20272;-87
2023/05/21 06:15:35;;;;;;;;;;;;;;;;;;4959450;28;19973;-86
2023/05/21 06:18:01;;;;;;;;;;;;;;;;;;4959412;28;19922;-86
2023/05/21 06:20:28;;;;;;;;;;;;;;;;;;4959143;28;20012;-87
2023/05/21 06:22:54;;;;;;;;;;;;;;;;;;4959257;28;19928;-87
2023/05/21 06:25:20;;;;;;;;;;;;;;;;;;4959276;28;19929;-87
2023/05/21 06:27:46;;;;;;;;;;;;;;;;;;4959202;28;19926;-87
2023/05/21 06:30:12;;;;;;;;;;;;;;;;;;4958981;28;19977;-87
2023/05/21 06:32:38;;;;;;;;;;;;;;;;;;4959384;28;19961;-87
2023/05/21 06:35:04;;;;;;;;;;;;;;;;;;4959221;28;19922;-86
2023/05/21 06:37:30;;;;;;;;;;;;;;;;;;4959270;28;20005;-87
2023/05/21 06:39:56;;;;;;;;;;;;;;;;;;4958921;28;19972;-87
2023/05/21 06:42:22;;;;;;;;;;;;;;;;;;4958952;28;20538;-88
2023/05/21 06:44:48;;;;;;;;;;;;;;;;;;4958997;28;19929;-87
2023/05/21 06:50:20;;;;;;;;;;;;;;;;;;4976009;28;20425;-86
2023/05/21 06:52:46;;;;;;;;;;;;;;;;;;4958711;28;20357;-86
2023/05/21 06:55:12;;;;;;;;;;;;;;;;;;4958642;28;19972;-87
2023/05/21 06:57:39;;;;;;;;;;;;;;;;;;4958662;28;19925;-87
2023/05/21 07:00:07;;;;;;;;;;;;;;;;;;4974695;28;19928;-86
2023/05/21 07:02:33;;;;;;;;;;;;;;;;;;4958622;28;19955;-86
2023/05/21 07:04:59;;;;;;;;;;;;;;;;;;4958602;28;19943;-84
2023/05/21 07:07:26;;;;;;;;;;;;;;;;;;4958651;28;19922;-88
2023/05/21 07:09:52;;;;;;;;;;;;;;;;;;4958607;28;19933;-88
2023/05/21 07:12:18;;;;;;;;;;;;;;;;;;4958750;28;20368;-87
2023/05/21 07:14:43;;;;;;;;;;;;;;;;;;4958520;28;19922;-87
2023/05/21 07:17:16;;;;;;;;;;;;;;;;;;4958748;28;19984;-87
2023/05/21 07:19:41;;;;;;;;;;;;;;;;;;4974659;28;19922;-85
2023/05/21 07:22:07;;;;;;;;;;;;;;;;;;4958466;28;19929;-87
2023/05/21 07:24:33;;;;;;;;;;;;;;;;;;4974606;28;19922;-88
2023/05/21 07:27:00;;;;;;;;;;;;;;;;;;4974271;28;19977;-87
2023/05/21 07:29:26;;;;;;;;;;;;;;;;;;4958272;28;19926;-88
2023/05/21 07:31:52;;;;;;;;;;;;;;;;;;4958154;28;19922;-86
2023/05/21 07:34:18;;;;;;;;;;;;;;;;;;4974466;28;19921;-87
2023/05/21 07:36:45;;;;;;;;;;;;;;;;;;4958262;28;19922;-87
2023/05/21 07:39:11;;;;;;;;;;;;;;;;;;4958400;28;19958;-87
2023/05/21 07:41:37;;;;;;;;;;;;;;;;;;4957949;28;20849;-87
2023/05/21 07:44:03;;;;;;;;;;;;;;;;;;4958294;28;19929;-87
2023/05/21 07:46:32;;;;;;;;;;;;;;;;;;4973850;28;19941;-87
2023/05/21 07:48:58;;;;;;;;;;;;;;;;;;4957924;28;20371;-87
2023/05/21 07:51:24;;;;;;;;;;;;;;;;;;4957881;28;19926;-88
2023/05/21 07:53:49;;;;;;;;;;;;;;;;;;4957960;28;20390;-87
2023/05/21 07:56:15;;;;;;;;;;;;;;;;;;4957918;28;20367;-87
2023/05/21 07:58:44;;;;;;;;;;;;;;;;;;4957728;28;20295;-87
2023/05/21 08:01:10;;;;;;;;;;;;;;;;;;4956329;28;19926;-88
2023/05/21 08:03:36;;;;;;;;;;;;;;;;;;4955489;28;19922;-88
2023/05/21 08:06:02;;;;;;;;;;;;;;;;;;4957198;28;20433;-88
2023/05/21 08:08:28;;;;;;;;;;;;;;;;;;4958469;28;20020;-89
2023/05/21 08:10:54;;;;;;;;;;;;;;;;;;4957463;28;19926;-91
2023/05/21 08:13:20;;;;;;;;;;;;;;;;;;4974049;28;19977;-86
2023/05/21 08:15:46;;;;;;;;;;;;;;;;;;4957187;28;19926;-87
2023/05/21 08:18:12;;;;;;;;;;;;;;;;;;4972503;28;19922;-89
2023/05/21 08:20:38;;;;;;;;;;;;;;;;;;4969556;28;20489;-89
2023/05/21 08:23:04;;;;;;;;;;;;;;;;;;4975813;28;19945;-93
2023/05/21 08:25:33;;;;;;;;;;;;;;;;;;4962213;28;20248;-89
2023/05/21 08:28:07;;;;;;;;;;;;;;;;;;4949971;28;19930;-86
2023/05/21 08:30:33;;;;;;;;;;;;;;;;;;4957430;28;19926;-87
2023/05/21 08:33:00;;;;;;;;;;;;;;;;;;4959078;28;19930;-85
2023/05/21 08:35:25;;;;;;;;;;;;;;;;;;4960444;28;19930;-84
2023/05/21 08:37:52;;;;;;;;;;;;;;;;;;4961496;28;20335;-83
2023/05/21 08:40:18;;;;;;;;;;;;;;;;;;4976804;28;19922;-82
2023/05/21 08:42:44;;;;;;;;;;;;;;;;;;4960746;28;20279;-82
2023/05/21 08:45:10;;;;;;;;;;;;;;;;;;4976856;28;20361;-83
2023/05/21 08:47:39;;;;;;;;;;;;;;;;;;4955411;28;19966;-82
2023/05/21 08:50:05;;;;;;;;;;;;;;;;;;4954577;28;20458;-83
2023/05/21 08:52:31;;;;;;;;;;;;;;;;;;4947968;28;19922;-81
2023/05/21 08:54:57;;;;;;;;;;;;;;;;;;4954532;28;20391;-85
2023/05/21 08:57:23;;;;;;;;;;;;;;;;;;4949693;28;20418;-85
2023/05/21 08:59:50;;;;;;;;;;;;;;;;;;4950121;28;19927;-86
2023/05/21 09:02:17;;;;;;;;;;;;;;;;;;4948197;29;19929;-82
2023/05/21 09:04:47;;;;;;;;;;;;;;;;;;4971112;28;19922;-82
2023/05/21 09:07:12;;;;;;;;;;;;;;;;;;4975349;28;19926;-83
2023/05/21 09:09:38;;;;;;;;;;;;;;;;;;4971285;28;19926;-83
2023/05/21 09:12:04;;;;;;;;;;;;;;;;;;4947927;29;19923;-82
2023/05/21 09:14:30;;;;;;;;;;;;;;;;;;4954488;28;19930;-80
2023/05/21 09:16:56;;;;;;;;;;;;;;;;;;4950891;28;19922;-80
2023/05/21 09:19:22;;;;;;;;;;;;;;;;;;4974312;28;20291;-80
2023/05/21 09:21:48;;;;;;;;;;;;;;;;;;4975397;28;20367;-80
2023/05/21 09:24:14;;;;;;;;;;;;;;;;;;4957909;28;19926;-82
2023/05/21 09:26:41;;;;;;;;;;;;;;;;;;4957717;28;19953;-83
2023/05/21 09:29:07;;;;;;;;;;;;;;;;;;4953566;28;20354;-82
2023/05/21 09:31:33;;;;;;;;;;;;;;;;;;4949745;28;20018;-83
2023/05/21 09:33:59;;;;;;;;;;;;;;;;;;4958816;28;20292;-82
2023/05/21 09:36:28;;;;;;;;;;;;;;;;;;4959063;28;19922;-83
2023/05/21 09:38:54;;;;;;;;;;;;;;;;;;4950479;28;19923;-82
2023/05/21 09:41:20;;;;;;;;;;;;;;;;;;4950541;28;19931;-82
2023/05/21 09:43:46;;;;;;;;;;;;;;;;;;4948863;28;20009;-82
2023/05/21 09:46:12;;;;;;;;;;;;;;;;;;4964777;28;19969;-84
2023/05/21 09:48:39;;;;;;;;;;;;;;;;;;4951940;28;19969;-82
2023/05/21 09:51:07;;;;;;;;;;;;;;;;;;4954519;28;20410;-83
2023/05/21 09:53:33;;;;;;;;;;;;;;;;;;4958125;28;20005;-82
2023/05/21 09:55:58;;;;;;;;;;;;;;;;;;4954078;28;19929;-82
2023/05/21 09:58:24;;;;;;;;;;;;;;;;;;4956096;28;19933;-82
2023/05/21 10:00:51;;;;;;;;;;;;;;;;;;4947641;28;19930;-82
2023/05/21 10:03:17;;;;;;;;;;;;;;;;;;4947516;28;20372;-82
2023/05/21 10:05:42;;;;;;;;;;;;;;;;;;4954840;28;19933;-82
2023/05/21 10:08:08;;;;;;;;;;;;;;;;;;4955558;28;19926;-83
2023/05/21 10:10:34;;;;;;;;;;;;;;;;;;4973438;28;19973;-82
2023/05/21 10:13:00;;;;;;;;;;;;;;;;;;4966180;28;19926;-82
2023/05/21 10:15:26;;;;;;;;;;;;;;;;;;4952755;28;20375;-82
2023/05/21 10:17:52;;;;;;;;;;;;;;;;;;4948524;28;20085;-81
2023/05/21 10:20:18;;;;;;;;;;;;;;;;;;4950345;28;20076;-82
2023/05/21 10:22:44;;;;;;;;;;;;;;;;;;4949614;28;19922;-82
2023/05/21 10:25:10;;;;;;;;;;;;;;;;;;4961352;28;20009;-82
2023/05/21 10:27:36;;;;;;;;;;;;;;;;;;4949455;28;19927;-82
2023/05/21 10:30:02;;;;;;;;;;;;;;;;;;4949523;28;19944;-82
2023/05/21 10:32:28;;;;;;;;;;;;;;;;;;4946397;29;19930;-82
2023/05/21 10:34:54;;;;;;;;;;;;;;;;;;4949708;28;19922;-81
2023/05/21 10:37:20;;;;;;;;;;;;;;;;;;4969842;28;20026;-82
2023/05/21 10:39:47;;;;;;;;;;;;;;;;;;4950522;28;19926;-81
2023/05/21 10:42:13;;;;;;;;;;;;;;;;;;4954553;28;19933;-81
2023/05/21 10:44:39;;;;;;;;;;;;;;;;;;4949660;28;19922;-81
2023/05/21 10:47:05;;;;;;;;;;;;;;;;;;4969488;28;19922;-82
2023/05/21 10:49:31;;;;;;;;;;;;;;;;;;4946245;28;20458;-80
2023/05/21 10:51:57;;;;;;;;;;;;;;;;;;4949270;28;19958;-82
2023/05/21 10:54:23;;;;;;;;;;;;;;;;;;4947096;28;19933;-81
2023/05/21 10:56:49;;;;;;;;;;;;;;;;;;4953654;28;20379;-81
2023/05/21 10:59:20;;;;;;;;;;;;;;;;;;4946886;28;20311;-80
2023/05/21 11:01:46;;;;;;;;;;;;;;;;;;4944045;28;20330;-80
2023/05/21 11:04:14;;;;;;;;;;;;;;;;;;4950546;28;19926;-81
2023/05/21 11:06:41;;;;;;;;;;;;;;;;;;4966046;28;19927;-78
2023/05/21 11:09:07;;;;;;;;;;;;;;;;;;4969327;28;20025;-81
2023/05/21 11:11:36;;;;;;;;;;;;;;;;;;4953484;28;19973;-83
2023/05/21 11:14:02;;;;;;;;;;;;;;;;;;4958107;28;19926;-80
2023/05/21 11:16:28;;;;;;;;;;;;;;;;;;4958153;28;20006;-82
2023/05/21 11:18:54;;;;;;;;;;;;;;;;;;4958040;28;20009;-82
2023/05/21 11:21:20;;;;;;;;;;;;;;;;;;4955027;28;20411;-82
2023/05/21 11:23:46;;;;;;;;;;;;;;;;;;4966981;28;19970;-82
2023/05/21 11:26:12;;;;;;;;;;;;;;;;;;4956420;28;19922;-82
2023/05/21 11:28:38;;;;;;;;;;;;;;;;;;4956343;28;19933;-82
2023/05/21 11:31:04;;;;;;;;;;;;;;;;;;4963932;28;19922;-82
2023/05/21 11:33:30;;;;;;;;;;;;;;;;;;4952048;28;20485;-82
2023/05/21 11:35:55;;;;;;;;;;;;;;;;;;4948388;28;20398;-83
2023/05/21 11:38:21;;;;;;;;;;;;;;;;;;4961107;28;19985;-83
2023/05/21 11:40:47;;;;;;;;;;;;;;;;;;4947457;28;20280;-83
2023/05/21 11:43:13;;;;;;;;;;;;;;;;;;4946544;28;20143;-83
2023/05/21 11:45:39;;;;;;;;;;;;;;;;;;4964529;28;19930;-83
2023/05/21 11:48:05;;;;;;;;;;;;;;;;;;4961608;28;20017;-83
2023/05/21 11:50:32;;;;;;;;;;;;;;;;;;4963729;28;19965;-83
2023/05/21 11:52:58;;;;;;;;;;;;;;;;;;4942118;28;19923;-82
2023/05/21 11:55:24;;;;;;;;;;;;;;;;;;4945880;29;20404;-83
2023/05/21 11:57:51;;;;;;;;;;;;;;;;;;4952581;28;19926;-82
2023/05/21 12:00:20;;;;;;;;;;;;;;;;;;4949625;28;19929;-83
2023/05/21 12:02:46;;;;;;;;;;;;;;;;;;4972963;28;19922;-83
2023/05/21 12:05:12;;;;;;;;;;;;;;;;;;4945337;28;20560;-84
2023/05/21 12:07:38;;;;;;;;;;;;;;;;;;4944952;28;19927;-84
2023/05/21 12:10:04;;;;;;;;;;;;;;;;;;4943720;28;20434;-83
2023/05/21 12:12:30;;;;;;;;;;;;;;;;;;4963429;28;20005;-84
2023/05/21 12:14:56;;;;;;;;;;;;;;;;;;4948614;28;19922;-84
2023/05/21 12:17:22;;;;;;;;;;;;;;;;;;4944807;29;19989;-84
2023/05/21 12:19:48;;;;;;;;;;;;;;;;;;4950359;28;19922;-84
2023/05/21 12:22:15;;;;;;;;;;;;;;;;;;4945164;28;20022;-84
2023/05/21 12:24:45;;;;;;;;;;;;;;;;;;4961038;28;19955;-84
2023/05/21 12:27:12;;;;;;;;;;;;;;;;;;4986188;28;20327;-84
2023/05/21 12:29:37;;;;;;;;;;;;;;;;;;4953393;28;19973;-84
2023/05/21 12:32:05;;;;;;;;;;;;;;;;;;4944738;28;19923;-84
2023/05/21 12:34:31;;;;;;;;;;;;;;;;;;4947490;28;19980;-84
2023/05/21 12:36:57;;;;;;;;;;;;;;;;;;4963501;28;20013;-84
2023/05/21 12:39:23;;;;;;;;;;;;;;;;;;4944193;29;20346;-85
2023/05/21 12:41:48;;;;;;;;;;;;;;;;;;4947423;28;19922;-85
2023/05/21 12:44:15;;;;;;;;;;;;;;;;;;4945095;28;20261;-84
2023/05/21 12:46:41;;;;;;;;;;;;;;;;;;4946773;28;20284;-84
2023/05/21 12:49:07;;;;;;;;;;;;;;;;;;4954753;28;19926;-85
2023/05/21 12:51:33;;;;;;;;;;;;;;;;;;4964643;28;20103;-83
2023/05/21 12:54:01;;;;;;;;;;;;;;;;;;4962115;28;20375;-83
2023/05/21 12:56:26;;;;;;;;;;;;;;;;;;4947278;29;20017;-84
2023/05/21 12:58:53;;;;;;;;;;;;;;;;;;4953635;29;19969;-84
2023/05/21 13:01:19;;;;;;;;;;;;;;;;;;4953682;29;19969;-84
2023/05/21 13:03:44;;;;;;;;;;;;;;;;;;4948666;28;19969;-84
2023/05/21 13:06:10;;;;;;;;;;;;;;;;;;4952549;28;19926;-84
2023/05/21 13:08:36;;;;;;;;;;;;;;;;;;4956510;28;20451;-84
2023/05/21 13:11:03;;;;;;;;;;;;;;;;;;4956601;28;19986;-84
2023/05/21 13:13:29;;;;;;;;;;;;;;;;;;4956737;28;20351;-84
2023/05/21 13:15:55;;;;;;;;;;;;;;;;;;4956589;28;19969;-84
2023/05/21 13:18:21;;;;;;;;;;;;;;;;;;4953651;28;19938;-84
2023/05/21 13:20:47;;;;;;;;;;;;;;;;;;4940891;29;19922;-84
2023/05/21 13:23:13;;;;;;;;;;;;;;;;;;4940783;29;19945;-85
2023/05/21 13:25:39;;;;;;;;;;;;;;;;;;4950977;28;20378;-85
2023/05/21 13:28:07;;;;;;;;;;;;;;;;;;4960010;28;19926;-84
2023/05/21 13:30:33;;;;;;;;;;;;;;;;;;4946681;29;19929;-85
2023/05/21 13:32:59;;;;;;;;;;;;;;;;;;4957430;28;19922;-84
2023/05/21 13:35:25;;;;;;;;;;;;;;;;;;4960159;28;19922;-84
2023/05/21 13:37:51;;;;;;;;;;;;;;;;;;4959800;28;20371;-84
2023/05/21 13:40:17;;;;;;;;;;;;;;;;;;4976130;28;19922;-84
2023/05/21 13:42:43;;;;;;;;;;;;;;;;;;4959749;28;19991;-84
2023/05/21 13:45:09;;;;;;;;;;;;;;;;;;4959742;28;19922;-84
2023/05/21 13:47:35;;;;;;;;;;;;;;;;;;4959695;28;20302;-84
2023/05/21 13:50:01;;;;;;;;;;;;;;;;;;4975643;28;19926;-84
2023/05/21 13:52:27;;;;;;;;;;;;;;;;;;4947519;28;20343;-84
2023/05/21 13:54:52;;;;;;;;;;;;;;;;;;4955371;28;19929;-84
2023/05/21 13:57:18;;;;;;;;;;;;;;;;;;4959502;28;19922;-84
2023/05/21 13:59:44;;;;;;;;;;;;;;;;;;4956104;28;20379;-84
2023/05/21 14:02:10;;;;;;;;;;;;;;;;;;4940249;29;19933;-84
2023/05/21 14:04:36;;;;;;;;;;;;;;;;;;4966285;28;19922;-84
2023/05/21 14:07:02;;;;;;;;;;;;;;;;;;4959633;28;20375;-84
2023/05/21 14:09:28;;;;;;;;;;;;;;;;;;4959068;28;19937;-84
2023/05/21 14:11:54;;;;;;;;;;;;;;;;;;4975380;28;20403;-84
2023/05/21 14:14:20;;;;;;;;;;;;;;;;;;4975519;28;19949;-84
2023/05/21 14:16:46;;;;;;;;;;;;;;;;;;4958247;28;20359;-84
2023/05/21 14:19:12;;;;;;;;;;;;;;;;;;4960805;28;19922;-83
2023/05/21 14:21:38;;;;;;;;;;;;;;;;;;4958778;28;20284;-84
2023/05/21 14:24:04;;;;;;;;;;;;;;;;;;4960840;28;19926;-84
2023/05/21 14:26:30;;;;;;;;;;;;;;;;;;4964797;28;19926;-84
2023/05/21 14:28:56;;;;;;;;;;;;;;;;;;4949723;29;19935;-84
2023/05/21 14:31:22;;;;;;;;;;;;;;;;;;4938487;29;19946;-84
2023/05/21 14:33:48;;;;;;;;;;;;;;;;;;4939574;29;19927;-84
2023/05/21 14:36:14;;;;;;;;;;;;;;;;;;4939635;29;20411;-84
2023/05/21 14:38:40;;;;;;;;;;;;;;;;;;4939795;29;20384;-84
2023/05/21 14:41:07;;;;;;;;;;;;;;;;;;4951315;28;20053;-84
2023/05/21 14:43:33;;;;;;;;;;;;;;;;;;4941364;28;19930;-84
2023/05/21 14:45:59;;;;;;;;;;;;;;;;;;4974909;28;19922;-84
2023/05/21 14:48:25;;;;;;;;;;;;;;;;;;4958490;28;19926;-83
2023/05/21 14:50:51;;;;;;;;;;;;;;;;;;4946158;28;20053;-84
2023/05/21 14:53:17;;;;;;;;;;;;;;;;;;4939519;29;19969;-84
2023/05/21 14:55:43;;;;;;;;;;;;;;;;;;4939479;29;19923;-83
2023/05/21 14:58:09;;;;;;;;;;;;;;;;;;4954009;28;19922;-84
2023/05/21 15:00:35;;;;;;;;;;;;;;;;;;4958398;28;19922;-83
2023/05/21 15:03:01;;;;;;;;;;;;;;;;;;4958497;28;19969;-84
2023/05/21 15:05:28;;;;;;;;;;;;;;;;;;4946409;28;19968;-84
2023/05/21 15:07:56;;;;;;;;;;;;;;;;;;4974432;28;19927;-84
2023/05/21 15:10:24;;;;;;;;;;;;;;;;;;4973084;28;19922;-84
2023/05/21 15:12:50;;;;;;;;;;;;;;;;;;4982685;28;19926;-84
2023/05/21 15:15:19;;;;;;;;;;;;;;;;;;4974306;28;19989;-84
2023/05/21 15:17:49;;;;;;;;;;;;;;;;;;4958222;28;19945;-84
2023/05/21 15:23:01;;;;;;;;;;;;;;;;;;4977985;28;20287;-84
2023/05/21 15:25:26;;;;;;;;;;;;;;;;;;4957847;28;20068;-84
2023/05/21 15:27:52;;;;;;;;;;;;;;;;;;4957148;28;20383;-84
2023/05/21 15:30:19;;;;;;;;;;;;;;;;;;4962465;28;19929;-84
2023/05/21 15:32:45;;;;;;;;;;;;;;;;;;4964646;28;20379;-84
2023/05/21 15:35:11;;;;;;;;;;;;;;;;;;4978503;28;20001;-84
2023/05/21 15:37:39;;;;;;;;;;;;;;;;;;4950746;28;19965;-84
2023/05/21 15:40:07;;;;;;;;;;;;;;;;;;4957651;28;19972;-84
2023/05/21 15:42:33;;;;;;;;;;;;;;;;;;4956490;28;20315;-84
2023/05/21 15:44:59;;;;;;;;;;;;;;;;;;4982476;28;19929;-84
2023/05/21 15:47:25;;;;;;;;;;;;;;;;;;4975797;28;19922;-84
2023/05/21 15:49:51;;;;;;;;;;;;;;;;;;4973209;28;19926;-84
2023/05/21 15:55:12;;;;;;;;;;;;;;;;;;4961647;28;20275;-84
2023/05/21 15:57:38;;;;;;;;;;;;;;;;;;4956820;28;19929;-84
2023/05/21 16:00:05;;;;;;;;;;;;;;;;;;4957013;28;19922;-84
2023/05/21 16:02:31;;;;;;;;;;;;;;;;;;4957375;28;19926;-84
2023/05/21 16:04:56;;;;;;;;;;;;;;;;;;4957307;28;19933;-84
2023/05/21 16:07:23;;;;;;;;;;;;;;;;;;4955457;28;19929;-84
2023/05/21 16:09:49;;;;;;;;;;;;;;;;;;4955944;28;19933;-84
2023/05/21 16:12:15;;;;;;;;;;;;;;;;;;4972920;28;19923;-84
2023/05/21 16:14:41;;;;;;;;;;;;;;;;;;4956753;28;19933;-84
2023/05/21 16:17:06;;;;;;;;;;;;;;;;;;4952581;28;19926;-83
2023/05/21 16:19:32;;;;;;;;;;;;;;;;;;4956457;28;20998;-84
2023/05/21 16:21:58;;;;;;;;;;;;;;;;;;4958256;28;19930;-84
2023/05/21 16:24:24;;;;;;;;;;;;;;;;;;4956499;28;19929;-84
2023/05/21 16:26:50;;;;;;;;;;;;;;;;;;4963359;28;19933;-84
2023/05/21 16:29:16;;;;;;;;;;;;;;;;;;4956654;28;19926;-83
2023/05/21 16:31:42;;;;;;;;;;;;;;;;;;4956433;28;19922;-84
2023/05/21 16:34:08;;;;;;;;;;;;;;;;;;4956721;28;19922;-84
2023/05/21 16:36:36;;;;;;;;;;;;;;;;;;4956629;28;19922;-84
2023/05/21 16:41:33;;;;;;;;;;;;;;;;;;4969463;28;19929;-84
2023/05/21 16:43:58;;;;;;;;;;;;;;;;;;4966005;28;19922;-84
2023/05/21 16:46:24;;;;;;;;;;;;;;;;;;4947782;28;19922;-83
2023/05/21 16:48:50;;;;;;;;;;;;;;;;;;4956455;28;19989;-84
2023/05/21 16:51:16;;;;;;;;;;;;;;;;;;4956706;28;19926;-84
2023/05/21 16:53:42;;;;;;;;;;;;;;;;;;4954796;28;19923;-84
2023/05/21 16:56:08;;;;;;;;;;;;;;;;;;4959467;28;20299;-84
2023/05/21 16:58:34;;;;;;;;;;;;;;;;;;4960810;28;20043;-84